createdAt,value
2018-06-19T00:00:00.591Z,1014.08
2018-06-19T00:04:57.911Z,1014.05
2018-06-19T00:09:54.445Z,1014.06
2018-06-19T00:14:50.029Z,1014.08
2018-06-19T00:19:47.385Z,1014.08
2018-06-19T00:24:43.331Z,1014.04
2018-06-19T00:29:39.172Z,1014.06
2018-06-19T00:34:35.057Z,1014.13
2018-06-19T00:39:30.922Z,1014.18
2018-06-19T00:44:26.890Z,1014.20
2018-06-19T00:49:22.811Z,1014.10
2018-06-19T00:54:18.908Z,1014.23
2018-06-19T00:59:14.692Z,1014.29
2018-06-19T01:04:10.529Z,1014.28
2018-06-19T01:09:07.047Z,1014.22
2018-06-19T01:14:04.015Z,1014.23
2018-06-19T01:18:59.770Z,1014.14
2018-06-19T01:23:57.254Z,1014.11
2018-06-19T01:28:53.076Z,1014.13
2018-06-19T01:33:48.739Z,1014.06
2018-06-19T01:38:44.554Z,1014.06
2018-06-19T01:43:40.262Z,1014.06
2018-06-19T01:48:36.285Z,1014.11
2018-06-19T01:53:32.007Z,1014.11
2018-06-19T01:58:27.785Z,1014.17
2018-06-19T02:03:24.463Z,1014.17
2018-06-19T02:08:21.412Z,1014.08
2018-06-19T02:13:17.040Z,1014.13
2018-06-19T02:18:12.970Z,1014.09
2018-06-19T02:23:09.158Z,1014.05
2018-06-19T02:28:04.966Z,1014.10
2018-06-19T02:33:02.107Z,1014.04
2018-06-19T02:37:57.523Z,1014.06
2018-06-19T02:42:53.215Z,1014.07
2018-06-19T02:47:49.115Z,1014.11
2018-06-19T02:52:45.447Z,1014.07
2018-06-19T02:57:42.349Z,1014.10
2018-06-19T03:02:39.277Z,1014.13
2018-06-19T03:07:35.871Z,1014.13
2018-06-19T03:12:31.431Z,1014.10
2018-06-19T03:17:28.253Z,1014.17
2018-06-19T03:22:25.286Z,1014.26
2018-06-19T03:27:20.704Z,1014.34
2018-06-19T03:32:17.616Z,1014.41
2018-06-19T03:37:13.527Z,1014.35
2018-06-19T03:42:09.195Z,1014.40
2018-06-19T03:47:05.297Z,1014.51
2018-06-19T03:52:01.312Z,1014.56
2018-06-19T03:56:57.533Z,1014.57
2018-06-19T04:01:53.283Z,1014.67
2018-06-19T04:06:50.139Z,1014.68
2018-06-19T04:11:46.437Z,1014.59
2018-06-19T04:16:42.021Z,1014.67
2018-06-19T04:21:39.135Z,1014.69
2018-06-19T04:26:34.714Z,1014.76
2018-06-19T04:31:31.557Z,1014.68
2018-06-19T04:36:27.573Z,1014.76
2018-06-19T04:41:24.598Z,1014.77
2018-06-19T04:46:21.160Z,1014.92
2018-06-19T04:51:16.695Z,1014.87
2018-06-19T04:56:12.693Z,1014.88
2018-06-19T05:01:09.861Z,1014.93
2018-06-19T05:06:05.665Z,1014.86
2018-06-19T05:11:01.371Z,1014.86
2018-06-19T05:15:57.223Z,1014.96
2018-06-19T05:20:52.940Z,1014.92
2018-06-19T05:25:48.983Z,1015.01
2018-06-19T05:30:45.964Z,1015.04
2018-06-19T05:35:41.318Z,1015.05
2018-06-19T05:40:37.690Z,1015.05
2018-06-19T05:45:33.502Z,1015.11
2018-06-19T05:50:29.202Z,1015.21
2018-06-19T05:55:25.683Z,1015.21
2018-06-19T06:00:22.604Z,1015.28
2018-06-19T06:05:18.319Z,1015.25
2018-06-19T06:10:14.616Z,1015.33
2018-06-19T06:15:10.756Z,1015.47
2018-06-19T06:20:07.554Z,1015.49
2018-06-19T06:25:04.097Z,1015.48
2018-06-19T06:29:59.812Z,1015.56
2018-06-19T06:34:55.704Z,1015.62
2018-06-19T06:39:52.609Z,1015.67
2018-06-19T06:44:48.234Z,1015.69
2018-06-19T06:49:44.514Z,1015.69
2018-06-19T06:54:40.723Z,1015.59
2018-06-19T06:59:36.639Z,1015.57
2018-06-19T07:04:32.961Z,1015.72
2018-06-19T07:09:29.829Z,1015.79
2018-06-19T07:14:25.646Z,1015.75
2018-06-19T07:19:21.976Z,1015.78
2018-06-19T07:24:18.310Z,1015.80
2018-06-19T07:29:14.350Z,1015.83
2018-06-19T07:34:10.459Z,1015.89
2018-06-19T07:39:07.035Z,1015.97
2018-06-19T07:44:02.740Z,1016.07
2018-06-19T07:48:59.986Z,1016.05
2018-06-19T07:53:56.181Z,1016.19
2018-06-19T07:58:52.203Z,1016.26
2018-06-19T08:03:49.200Z,1016.37
2018-06-19T08:08:45.018Z,1016.40
2018-06-19T08:13:40.547Z,1016.36
2018-06-19T08:18:36.791Z,1016.43
2018-06-19T08:23:32.809Z,1016.46
2018-06-19T08:28:28.752Z,1016.54
2018-06-19T08:33:24.949Z,1016.46
2018-06-19T08:38:21.120Z,1016.50
2018-06-19T08:43:18.445Z,1016.61
2018-06-19T08:48:14.174Z,1016.68
2018-06-19T08:53:11.138Z,1016.63
2018-06-19T08:58:06.742Z,1016.68
2018-06-19T09:03:03.709Z,1016.62
2018-06-19T09:08:00.927Z,1016.64
2018-06-19T09:12:58.736Z,1016.73
2018-06-19T09:17:55.547Z,1016.83
2018-06-19T09:22:51.178Z,1016.77
2018-06-19T09:27:48.247Z,1016.80
2018-06-19T09:32:44.269Z,1016.86
2018-06-19T09:37:40.196Z,1016.85
2018-06-19T09:42:36.965Z,1016.92
2018-06-19T09:47:33.909Z,1016.91
2018-06-19T09:52:30.322Z,1016.90
2018-06-19T09:57:27.556Z,1016.97
2018-06-19T10:02:23.064Z,1016.84
2018-06-19T10:07:19.804Z,1016.95
2018-06-19T10:12:15.460Z,1016.96
2018-06-19T10:17:12.289Z,1016.87
2018-06-19T10:22:09.359Z,1016.94
2018-06-19T10:27:06.117Z,1016.97
2018-06-19T10:32:01.667Z,1017.09
2018-06-19T10:36:58.630Z,1017.06
2018-06-19T10:41:55.680Z,1017.06
2018-06-19T10:46:52.566Z,1017.10
2018-06-19T10:51:48.929Z,1017.03
2018-06-19T10:56:45.378Z,1017.06
2018-06-19T11:01:41.714Z,1017.14
2018-06-19T11:06:37.923Z,1017.09
2018-06-19T11:11:34.060Z,1017.12
2018-06-19T11:16:30.508Z,1017.08
2018-06-19T11:21:27.042Z,1017.11
2018-06-19T11:26:23.635Z,1017.10
2018-06-19T11:31:20.127Z,1017.07
2018-06-19T11:36:16.515Z,1017.11
2018-06-19T11:41:13.952Z,1017.07
2018-06-19T11:46:10.928Z,1017.08
2018-06-19T11:51:06.814Z,1017.12
2018-06-19T11:56:02.685Z,1017.15
2018-06-19T12:00:58.989Z,1017.06
2018-06-19T12:05:54.544Z,1017.09
2018-06-19T12:10:50.134Z,1017.00
2018-06-19T12:15:47.382Z,1017.12
2018-06-19T12:20:44.400Z,1017.05
2018-06-19T12:25:42.381Z,1017.10
2018-06-19T12:30:39.193Z,1017.12
2018-06-19T12:35:34.847Z,1017.10
2018-06-19T12:40:30.655Z,1017.07
2018-06-19T12:45:26.383Z,1017.15
2018-06-19T12:50:22.943Z,1017.15
2018-06-19T12:55:21.432Z,1017.09
2018-06-19T13:00:17.883Z,1017.12
2018-06-19T13:05:13.489Z,1017.14
2018-06-19T13:10:09.985Z,1017.08
2018-06-19T13:15:06.342Z,1017.08
2018-06-19T13:20:02.212Z,1016.96
2018-06-19T13:24:58.957Z,1017.01
2018-06-19T13:29:55.850Z,1016.98
2018-06-19T13:34:52.417Z,1016.99
2018-06-19T13:39:49.195Z,1017.07
2018-06-19T13:44:45.381Z,1016.96
2018-06-19T13:49:42.520Z,1017.02
2018-06-19T13:54:38.420Z,1016.96
2018-06-19T13:59:35.203Z,1017.09
2018-06-19T14:04:31.011Z,1017.00
2018-06-19T14:09:26.389Z,1016.94
2018-06-19T14:14:23.422Z,1016.88
2018-06-19T14:19:19.282Z,1016.99
2018-06-19T14:24:14.716Z,1017.02
2018-06-19T14:29:10.550Z,1017.05
2018-06-19T14:34:06.437Z,1017.03
2018-06-19T14:39:02.447Z,1017.11
2018-06-19T14:43:58.261Z,1017.07
2018-06-19T14:48:53.885Z,1017.10
2018-06-19T14:53:50.566Z,1017.19
2018-06-19T14:58:45.916Z,1017.29
2018-06-19T15:03:42.706Z,1017.28
2018-06-19T15:08:38.206Z,1017.19
2018-06-19T15:13:34.094Z,1017.17
2018-06-19T15:18:30.673Z,1017.19
2018-06-19T15:23:26.711Z,1017.19
2018-06-19T15:28:23.127Z,1017.25
2018-06-19T15:33:20.552Z,1017.11
2018-06-19T15:38:16.382Z,1017.17
2018-06-19T15:43:12.508Z,1017.20
2018-06-19T15:48:08.811Z,1017.15
2018-06-19T15:53:05.664Z,1017.11
2018-06-19T15:58:01.180Z,1017.15
2018-06-19T16:02:57.039Z,1017.14
2018-06-19T16:07:54.345Z,1017.15
2018-06-19T16:12:50.051Z,1017.04
2018-06-19T16:17:46.117Z,1017.11
2018-06-19T16:22:42.390Z,1017.04
2018-06-19T16:27:38.410Z,1017.20
2018-06-19T16:32:35.062Z,1017.24
2018-06-19T16:37:30.476Z,1017.17
2018-06-19T16:42:27.392Z,1017.15
2018-06-19T16:47:24.170Z,1017.19
2018-06-19T16:52:20.878Z,1017.22
2018-06-19T16:57:16.479Z,1017.14
2018-06-19T17:02:13.374Z,1017.11
2018-06-19T17:07:09.958Z,1017.14
2018-06-19T17:12:05.793Z,1017.12
2018-06-19T17:17:01.593Z,1017.13
2018-06-19T17:21:57.831Z,1017.11
2018-06-19T17:26:58.189Z,1017.09
2018-06-19T17:31:53.852Z,1017.16
2018-06-19T17:36:50.586Z,1017.12
2018-06-19T17:41:47.041Z,1017.21
2018-06-19T17:46:42.566Z,1017.13
2018-06-19T17:51:38.581Z,1017.19
2018-06-19T17:56:34.615Z,1017.05
2018-06-19T18:01:30.395Z,1017.13
2018-06-19T18:06:31.630Z,1017.08
2018-06-19T18:11:27.345Z,1017.00
2018-06-19T18:16:23.722Z,1017.09
2018-06-19T18:21:20.715Z,1017.04
2018-06-19T18:26:17.243Z,1017.18
2018-06-19T18:31:12.806Z,1017.19
2018-06-19T18:36:09.568Z,1017.04
2018-06-19T18:41:06.397Z,1017.16
2018-06-19T18:46:02.162Z,1017.12
2018-06-19T18:50:59.191Z,1017.05
2018-06-19T18:55:55.993Z,1017.00
2018-06-19T19:00:56.467Z,1017.10
2018-06-19T19:05:50.934Z,1017.07
2018-06-19T19:10:49.168Z,1017.14
2018-06-19T19:15:46.186Z,1017.08
2018-06-19T19:20:41.886Z,1017.16
2018-06-19T19:25:37.720Z,1017.12
2018-06-19T19:30:33.657Z,1017.14
2018-06-19T19:35:29.694Z,1017.16
2018-06-19T19:40:25.976Z,1017.18
2018-06-19T19:45:21.837Z,1017.18
2018-06-19T19:50:19.779Z,1017.29
2018-06-19T19:55:16.933Z,1017.42
2018-06-19T20:00:13.281Z,1017.38
2018-06-19T20:05:09.116Z,1017.37
2018-06-19T20:10:05.027Z,1017.40
2018-06-19T20:15:00.869Z,1017.41
2018-06-19T20:19:57.919Z,1017.44
2018-06-19T20:24:53.438Z,1017.53
2018-06-19T20:29:49.373Z,1017.54
2018-06-19T20:34:45.257Z,1017.50
2018-06-19T20:39:41.084Z,1017.54
2018-06-19T20:44:36.854Z,1017.56
2018-06-19T20:49:33.885Z,1017.60
2018-06-19T20:54:29.538Z,1017.67
2018-06-19T20:59:26.642Z,1017.65
2018-06-19T21:04:22.281Z,1017.58
2018-06-19T21:09:18.030Z,1017.56
2018-06-19T21:14:15.531Z,1017.48
2018-06-19T21:19:12.389Z,1017.50
2018-06-19T21:24:09.271Z,1017.53
2018-06-19T21:29:06.027Z,1017.50
2018-06-19T21:34:01.577Z,1017.61
2018-06-19T21:38:57.646Z,1017.52
2018-06-19T21:43:55.073Z,1017.52
2018-06-19T21:48:51.525Z,1017.52
2018-06-19T21:53:47.910Z,1017.40
2018-06-19T21:58:43.510Z,1017.47
2018-06-19T22:03:40.491Z,1017.50
2018-06-19T22:08:36.308Z,1017.49
2018-06-19T22:13:32.443Z,1017.39
2018-06-19T22:18:29.376Z,1017.41
2018-06-19T22:23:26.132Z,1017.37
2018-06-19T22:28:21.697Z,1017.40
2018-06-19T22:33:18.708Z,1017.44
2018-06-19T22:38:14.610Z,1017.30
2018-06-19T22:43:11.154Z,1017.28
2018-06-19T22:48:07.165Z,1017.35
2018-06-19T22:53:03.119Z,1017.38
2018-06-19T22:57:58.947Z,1017.36
2018-06-19T23:02:54.823Z,1017.32
2018-06-19T23:07:50.796Z,1017.36
2018-06-19T23:12:46.715Z,1017.36
2018-06-19T23:17:43.536Z,1017.40
2018-06-19T23:22:39.137Z,1017.38
2018-06-19T23:27:36.170Z,1017.31
2018-06-19T23:32:31.665Z,1017.29
2018-06-19T23:37:27.616Z,1017.26
2018-06-19T23:42:23.715Z,1017.23
2018-06-19T23:47:19.643Z,1017.15
2018-06-19T23:52:15.385Z,1017.17
2018-06-19T23:57:11.105Z,1017.16
